Friday, March 27, 2015
22:13 UTC
  |  Log In   |  Register Free
Airport Search:

Orlando Sanford International Airport
(KSFB)

FAA data valid effective March 05, 2015 - April 30, 2015 (unless otherwise noted).

 
 
 
 
 
 
 
 
 
 
 
 
 
 

Current Aviation Weather for Orlando Sanford International Airport (KSFB)

The most recent METAR observation for KSFB was updated at: 1414
METAR Summary (Translated METAR)
KSFB
251353Z 06004KT 1/4SM FG VV002 17/17 A3015 RMK AO2 SLP209 T01720167
KORL
251400Z 04004KT 2 1/2SM FG OVC004 18/17 A3015 RMK AO2 T01780167
(14.8 nm SW from KSFB)
KDED
251355Z AUTO 31003KT 3SM A3016 RMK AO1 VSBY 2 1/2V4
(17.6 nm NW from KSFB)
TAF Summary (Translated TAF)
KSFB
251402Z 2514/2612 06004KT 1/2SM FG VV002 TEMPO 2514/2515 1/4SM FG FM251500 05005KT P6SM BKN010 BKN025 FM251700 10007KT P6SM SCT025 BKN050 FM260200 12003KT P6SM SCT060
  Airport Weather Conditions for KSFB

 Current Weather at SFB
68° F
Light Rain
West winds at 15.0 mph
SFB NOAA Radar

Pressure: 29.81 in
Humidity: 84%
Wind: West at 15.0 MPH (13 KT)
Dew Point: 63.0°F
Visibility: 10.00 mi


Airport Weather Forecast for KSFB

Translated METAR and TAF for KSFB
Translated METAR for KSFB (2213 UTC 27 March 2015)
found at http://aviationweather.gov/adds/metars/
 
METAR text: KSFB 272153Z 23012KT 10SM SCT060 BKN100 19/17 A2981 RMK AO2 RAE01 SLP092 P0000 T01940167
Conditions at: KSFB (SANFORD/ORLANDO , FL, US) observed 2153 UTC 27 March 2015
Temperature: 19.4°C (67°F)
Dewpoint: 16.7°C (62°F) [RH = 84%]
Pressure (altimeter): 29.81 inches Hg (1009.6 mb)
[Sea-level pressure: 1009.2 mb]
Winds: from the SW (230 degrees) at 14 MPH (12 knots; 6.2 m/s)
Visibility: 10 or more miles (16+ km)
Ceiling: 10000 feet AGL
Clouds: scattered clouds at 6000 feet AGL
broken clouds at 10000 feet AGL
Weather: no significant weather observed at this time
Translated TAF for KSFB
Forecast for: KSFB (SANFORD/ORLANDO , FL, US)
TAF Text: KSFB 271816Z 2718/2818 25014KT P6SM VCTS SCT035CB BKN050
Forecast period: 1800 UTC 27 March 2015 to 0000 UTC 28 March 2015
Forecast type: FROM: standard forecast or significant change
Winds: from the WSW (250 degrees) at 16 MPH (14 knots; 7.3 m/s)
Visibility: 6 or more miles (10+ km)
Ceiling: 5000 feet AGL
Clouds: scattered clouds at 3500 feet AGL
broken clouds at 5000 feet AGL
Weather: VCTS  (thunderstorm in vicinity)
TAF Text: TEMPO 2718/2720 VRB20G25KT 3SM TSRA BKN025CB
Forecast period: 1800 to 2000 UTC 27 March 2015
Forecast type: TEMPORARY: The following changes expected for less than half the time period
Winds: variable direction winds at 23 MPH (20 knots; 10.4 m/s)
gusting to 29 MPH (25 knots; 13.0 m/s)
Visibility: 3 miles (5 km)
Ceiling: 2500 feet AGL
Clouds: broken clouds at 2500 feet AGL
Weather: TSRA  (rain associated with thunderstorm(s))
TAF Text: FM280000 28013KT P6SM VCSH BKN035
Forecast period: 0000 to 0300 UTC 28 March 2015
Forecast type: FROM: standard forecast or significant change
Winds: from the W (280 degrees) at 15 MPH (13 knots; 6.8 m/s)
Visibility: 6 or more miles (10+ km)
Ceiling: 3500 feet AGL
Clouds: broken clouds at 3500 feet AGL
Weather: VCSH  (showers in vicinity)
TAF Text: FM280300 30011KT P6SM BKN250
Forecast period: 0300 to 1800 UTC 28 March 2015
Forecast type: FROM: standard forecast or significant change
Winds: from the WNW (300 degrees) at 13 MPH (11 knots; 5.7 m/s)
Visibility: 6 or more miles (10+ km)
Ceiling: 25000 feet AGL
Clouds: broken clouds at 25000 feet AGL
Weather: no significant weather forecast for this period

Find All Airport Services Find A Hotel Find A Rental Car Find A Golf Course Find A Restaurant $100 Hamburger



FBO's on the Field
FBO Company Facility Photos Services Transportation Aviation Fuel Prices: Prices include tax
Catering Weather Repair Courtesy Rental Type 100LL JetA JetA+ MOGAS 8087
 
StarPort

StarPort logo
Currently rated 3.8 by 7 people
FS:
Last Updated: Mar-10
Login to update fuel prices
SS:
Contact StarPortMore FBO Information
 
Million Air Sanford

Currently rated 3.6 by 3 people
FS:Avfuel
Last Updated: Mar-17
Login to update fuel prices
SS:
Contact Million Air SanfordMore FBO Information
 
Add another FBO Facility Photos Catering Weather Repair Courtesy Rental Type 100LL JetA JetA+ MOGAS 8087
Services Transportation Aviation Fuel Prices: Prices include tax


model-print
model-print
model-print
model-print